地図

経路データ

SID SEASON NUMBER BASIN SUBBASIN NAME ISO_TIME NATURE LAT LON WMO_WIND WMO_PRES WMO_AGENCY TRACK_TYPE DIST2LAND LANDFALL IFLAG USA_AGENCY USA_ATCF_ID USA_LAT USA_LON USA_RECORD USA_STATUS USA_WIND USA_PRES USA_SSHS USA_R34_NE USA_R34_SE USA_R34_SW USA_R34_NW USA_R50_NE USA_R50_SE USA_R50_SW USA_R50_NW USA_R64_NE USA_R64_SE USA_R64_SW USA_R64_NW USA_POCI USA_ROCI USA_RMW USA_EYE TOKYO_LAT TOKYO_LON TOKYO_GRADE TOKYO_WIND TOKYO_PRES TOKYO_R50_DIR TOKYO_R50_LONG TOKYO_R50_SHORT TOKYO_R30_DIR TOKYO_R30_LONG TOKYO_R30_SHORT TOKYO_LAND CMA_LAT CMA_LON CMA_CAT CMA_WIND CMA_PRES HKO_LAT HKO_LON HKO_CAT HKO_WIND HKO_PRES NEWDELHI_LAT NEWDELHI_LON NEWDELHI_GRADE NEWDELHI_WIND NEWDELHI_PRES NEWDELHI_CI NEWDELHI_DP NEWDELHI_POCI REUNION_LAT REUNION_LON REUNION_TYPE REUNION_WIND REUNION_PRES REUNION_TNUM REUNION_CI REUNION_RMW REUNION_R34_NE REUNION_R34_SE REUNION_R34_SW REUNION_R34_NW REUNION_R50_NE REUNION_R50_SE REUNION_R50_SW REUNION_R50_NW REUNION_R64_NE REUNION_R64_SE REUNION_R64_SW REUNION_R64_NW BOM_LAT BOM_LON BOM_TYPE BOM_WIND BOM_PRES BOM_TNUM BOM_CI BOM_RMW BOM_R34_NE BOM_R34_SE BOM_R34_SW BOM_R34_NW BOM_R50_NE BOM_R50_SE BOM_R50_SW BOM_R50_NW BOM_R64_NE BOM_R64_SE BOM_R64_SW BOM_R64_NW BOM_ROCI BOM_POCI BOM_EYE BOM_POS_METHOD BOM_PRES_METHOD NADI_LAT NADI_LON NADI_CAT NADI_WIND NADI_PRES WELLINGTON_LAT WELLINGTON_LON WELLINGTON_WIND WELLINGTON_PRES DS824_LAT DS824_LON DS824_STAGE DS824_WIND DS824_PRES TD9636_LAT TD9636_LON TD9636_STAGE TD9636_WIND TD9636_PRES TD9635_LAT TD9635_LON TD9635_WIND TD9635_PRES TD9635_ROCI NEUMANN_LAT NEUMANN_LON NEUMANN_CLASS NEUMANN_WIND NEUMANN_PRES MLC_LAT MLC_LON MLC_CLASS MLC_WIND MLC_PRES USA_GUST BOM_GUST BOM_GUST_PER REUNION_GUST REUNION_GUST_PER USA_SEAHGT USA_SEARAD_NE USA_SEARAD_SE USA_SEARAD_SW USA_SEARAD_NW STORM_SPEED STORM_DIR
1913021S13052 1913 8 SI MM NOT_NAMED 1913-01-21 06:00:00 NR -12.5000 51.6000 reunion main 192 192 _____O________ -1 -12.5000 51.6000 99 9.90000 2 70
1913021S13052 1913 8 SI MM NOT_NAMED 1913-01-21 09:00:00 NR -12.4700 51.6793 main 203 203 _____P________ -1 -12.4700 51.6793 99 2 69
1913021S13052 1913 8 SI MM NOT_NAMED 1913-01-21 12:00:00 NR -12.4453 51.7440 main 206 206 _____P________ -1 -12.4453 51.7440 99 1 68
1913021S13052 1913 8 SI MM NOT_NAMED 1913-01-21 15:00:00 NR -12.4310 51.7792 main 216 216 _____P________ -1 -12.4310 51.7792 99 0 0
1913021S13052 1913 8 SI MM NOT_NAMED 1913-01-21 18:00:00 NR -12.4325 51.7704 main 216 203 _____P________ -1 -12.4325 51.7704 99 1 252
1913021S13052 1913 8 SI MM NOT_NAMED 1913-01-21 21:00:00 NR -12.4550 51.7028 main 203 192 _____P________ -1 -12.4550 51.7028 99 2 250
1913021S13052 1913 8 SI MM NOT_NAMED 1913-01-22 00:00:00 NR -12.5037 51.5618 main 192 158 _____P________ -1 -12.5037 51.5618 99 4 250
1913021S13052 1913 8 SI MM NOT_NAMED 1913-01-22 03:00:00 NR -12.5837 51.3326 main 158 123 _____P________ -1 -12.5837 51.3326 99 6 250
1913021S13052 1913 8 SI MM NOT_NAMED 1913-01-22 06:00:00 NR -12.7000 51.0000 reunion main 123 79 _____O________ -1 -12.7000 51.0000 99 9.90000 8 250
1913021S13052 1913 8 SI MM NOT_NAMED 1913-01-22 09:00:00 NR -12.8549 50.5564 main 76 21 _____P________ -1 -12.8549 50.5564 99 10 250
1913021S13052 1913 8 SI MM NOT_NAMED 1913-01-22 12:00:00 NR -13.0401 50.0234 main 10 0 _____P________ -1 -13.0401 50.0234 99 12 250
1913021S13052 1913 8 SI MM NOT_NAMED 1913-01-22 15:00:00 NR -13.2449 49.4302 main 0 0 _____P________ -1 -13.2449 49.4302 99 13 251
1913021S13052 1913 8 SI MM NOT_NAMED 1913-01-22 18:00:00 NR -13.4587 48.8062 main 0 0 _____P________ -1 -13.4587 48.8062 99 13 251
1913021S13052 1913 8 SI MM NOT_NAMED 1913-01-22 21:00:00 NR -13.6710 48.1812 main 10 0 _____P________ -1 -13.6710 48.1812 99 13 251
1913021S13052 1913 8 SI MM NOT_NAMED 1913-01-23 00:00:00 NR -13.8718 47.5852 main 32 32 _____P________ -1 -13.8718 47.5852 99 12 251
1913021S13052 1913 8 SI MM NOT_NAMED 1913-01-23 03:00:00 NR -14.0513 47.0480 main 82 82 _____P________ -1 -14.0513 47.0480 99 10 251
1913021S13052 1913 8 SI MM NOT_NAMED 1913-01-23 06:00:00 NR -14.2000 46.6000 reunion main 108 108 _____O________ -1 -14.2000 46.6000 99 9.90000 8 251
1913021S13052 1913 8 SI MM NOT_NAMED 1913-01-23 09:00:00 NR -14.3110 46.2637 main 124 124 _____P________ -1 -14.3110 46.2637 99 6 251
1913021S13052 1913 8 SI MM NOT_NAMED 1913-01-23 12:00:00 NR -14.3874 46.0318 main 129 129 _____P________ -1 -14.3874 46.0318 99 4 251
1913021S13052 1913 8 SI MM NOT_NAMED 1913-01-23 15:00:00 NR -14.4342 45.8895 main 134 132 _____P________ -1 -14.4342 45.8895 99 2 251
1913021S13052 1913 8 SI MM NOT_NAMED 1913-01-23 18:00:00 NR -14.4566 45.8219 main 132 132 _____P________ -1 -14.4566 45.8219 99 1 248
1913021S13052 1913 8 SI MM NOT_NAMED 1913-01-23 21:00:00 NR -14.4596 45.8141 main 132 132 _____P________ -1 -14.4596 45.8141 99 0 77
1913021S13052 1913 8 SI MM NOT_NAMED 1913-01-24 00:00:00 NR -14.4479 45.8511 main 134 134 _____P________ -1 -14.4479 45.8511 99 1 72
1913021S13052 1913 8 SI MM NOT_NAMED 1913-01-24 03:00:00 NR -14.4264 45.9181 main 134 129 _____P________ -1 -14.4264 45.9181 99 2 71
1913021S13052 1913 8 SI MM NOT_NAMED 1913-01-24 06:00:00 NR -14.4000 46.0000 reunion main 129 _____O________ -1 -14.4000 46.0000 99 9.90000 2 71

IBTrACS Databaseについて

本データベースは、米国NOAAが公開する1842年以降の世界の熱帯低気圧のベストトラックデータアーカイブInternational Best Track Archive for Climate Stewardship (IBTrACS)を、ウェブで閲覧しやすい形式に変換したものです。

最終更新日:2021-11-26